Time;durP1;ratioP1;P1;durP2;ratioP2;P2;SDS_P1;SDS_P2;PMS_P1;PMS_P2;Temp;Humidity;BMP_temperature;BMP_pressure;BME280_temperature;BME280_humidity;BME280_pressure;Samples;Min_cycle;Max_cycle;Signal;HPM_P1;HPM_P2
2022/08/17 00:00:48;;;;;;;11.75;5.58;;;;;;;19.26;79.37;99636.55;1791766;78;21776;-75
2022/08/17 00:03:23;;;;;;;9.03;5.62;;;;;;;19.25;79.50;99636.24;1797344;77;21506;-77
2022/08/17 00:06:00;;;;;;;10.45;5.83;;;;;;;19.25;79.54;99640.77;1783882;78;21015;-77
2022/08/17 00:08:32;;;;;;;10.50;5.75;;;;;;;19.24;79.59;99638.61;1787079;78;21007;-78
2022/08/17 00:10:59;;;;;;;11.28;5.35;;;;;;;19.23;79.65;99634.28;1808349;78;21495;-75
2022/08/17 00:13:37;;;;;;;11.63;5.60;;;;;;;19.22;79.72;99636.64;1806117;78;21562;-76
2022/08/17 00:16:07;;;;;;;8.30;5.33;;;;;;;19.21;79.69;99629.64;1781985;79;21326;-76
2022/08/17 00:18:34;;;;;;;8.03;5.80;;;;;;;19.23;79.66;99630.78;1784912;79;21058;-77
2022/08/17 00:21:04;;;;;;;7.05;5.28;;;;;;;19.22;79.62;99620.58;1781136;78;21022;-76
2022/08/17 00:23:31;;;;;;;10.70;5.60;;;;;;;19.22;79.59;99623.26;1764136;79;21424;-74
2022/08/17 00:25:58;;;;;;;9.38;5.78;;;;;;;19.20;79.64;99622.60;1797136;78;21924;-73
2022/08/17 00:28:24;;;;;;;7.58;5.10;;;;;;;19.15;79.74;99627.73;1792921;78;20978;-76
2022/08/17 00:30:51;;;;;;;14.30;5.87;;;;;;;19.15;79.77;99629.06;1784464;78;22021;-74
2022/08/17 00:33:23;;;;;;;7.67;5.75;;;;;;;19.15;79.79;99619.19;1787209;78;21058;-75
2022/08/17 00:35:50;;;;;;;13.28;5.75;;;;;;;19.15;79.82;99626.39;1814511;78;21423;-77
2022/08/17 00:38:18;;;;;;;13.58;5.80;;;;;;;19.12;79.88;99622.27;1813823;78;22773;-74
2022/08/17 00:40:57;;;;;;;11.15;5.62;;;;;;;19.12;79.97;99618.77;1800523;78;21044;-74
2022/08/17 00:43:43;;;;;;;12.58;5.92;;;;;;;19.11;80.02;99622.47;1813330;78;21008;-74
2022/08/17 00:46:23;;;;;;;11.20;5.80;;;;;;;19.09;80.03;99619.95;1800405;79;21007;-75
2022/08/17 00:48:50;;;;;;;9.20;5.70;;;;;;;19.07;80.11;99619.33;1775020;79;21445;-75
2022/08/17 00:51:38;;;;;;;11.12;5.78;;;;;;;19.08;80.12;99618.82;1812973;79;21703;-75
2022/08/17 00:54:27;;;;;;;10.88;5.97;;;;;;;19.08;80.14;99624.17;1803983;79;21027;-74
2022/08/17 00:56:58;;;;;;;8.78;5.62;;;;;;;19.07;80.18;99618.50;1799308;79;20995;-75
2022/08/17 00:59:29;;;;;;;9.13;5.55;;;;;;;19.04;80.20;99620.24;1806288;78;21011;-75
2022/08/17 01:01:57;;;;;;;7.62;5.35;;;;;;;19.03;80.18;99619.93;1799919;79;21003;-73
2022/08/17 01:04:24;;;;;;;10.55;6.00;;;;;;;19.02;80.15;99614.27;1810812;78;22408;-76
2022/08/17 01:06:50;;;;;;;11.22;5.45;;;;;;;19.03;80.14;99618.08;1785169;78;21086;-74
2022/08/17 01:09:17;;;;;;;11.35;5.55;;;;;;;19.03;80.15;99619.93;1799005;78;21041;-75
2022/08/17 01:11:44;;;;;;;10.45;5.97;;;;;;;19.00;80.20;99614.44;1752148;79;21024;-78
2022/08/17 01:14:11;;;;;;;8.95;5.80;;;;;;;19.00;80.20;99610.42;1816299;78;21525;-75
2022/08/17 01:16:38;;;;;;;9.18;5.53;;;;;;;19.00;80.10;99609.08;1818668;77;22597;-73
2022/08/17 01:19:15;;;;;;;17.77;6.12;;;;;;;18.97;80.08;99609.48;1810544;78;20987;-75
2022/08/17 01:21:51;;;;;;;9.43;5.95;;;;;;;18.95;80.11;99604.02;1781694;78;21441;-76
2022/08/17 01:24:18;;;;;;;10.35;6.12;;;;;;;18.93;80.11;99597.52;1801780;78;21076;-75
2022/08/17 01:26:46;;;;;;;9.23;5.90;;;;;;;18.90;80.12;99603.75;1812253;78;21067;-74
2022/08/17 01:29:13;;;;;;;11.10;5.60;;;;;;;18.88;80.21;99607.97;1774867;79;22125;-76
2022/08/17 01:31:49;;;;;;;11.25;6.10;;;;;;;18.87;80.25;99607.14;1818810;78;21098;-75
2022/08/17 01:34:16;;;;;;;8.28;5.58;;;;;;;18.87;80.25;99603.13;1814776;78;20999;-74
2022/08/17 01:36:46;;;;;;;11.40;5.95;;;;;;;18.86;80.22;99600.14;1813116;78;21039;-73
2022/08/17 01:39:38;;;;;;;11.63;5.97;;;;;;;18.86;80.21;99596.13;1807555;78;21092;-75
2022/08/17 01:42:22;;;;;;;8.43;5.40;;;;;;;18.84;80.24;99594.16;1807089;77;22019;-75
2022/08/17 01:44:54;;;;;;;10.32;5.92;;;;;;;18.83;80.21;99593.84;1776108;78;21066;-76
2022/08/17 01:47:22;;;;;;;7.78;5.30;;;;;;;18.81;80.16;99596.37;1816646;77;21069;-73
2022/08/17 01:49:49;;;;;;;11.48;5.22;;;;;;;18.79;80.18;99597.91;1789036;78;21524;-75
2022/08/17 02:02:35;;;;;;;10.72;5.60;;;;;;;18.78;80.43;99588.75;1816433;78;21543;-73
2022/08/17 02:05:02;;;;;;;10.45;5.78;;;;;;;18.78;80.43;99592.77;1814271;78;21035;-74
2022/08/17 02:07:29;;;;;;;8.18;5.45;;;;;;;18.77;80.36;99595.95;1809069;78;21068;-73
2022/08/17 02:09:56;;;;;;;8.25;5.50;;;;;;;18.76;80.40;99592.96;1770728;79;21741;-73
2022/08/17 02:12:23;;;;;;;10.30;5.75;;;;;;;18.75;80.47;99595.32;1818096;78;21049;-75
2022/08/17 02:14:51;;;;;;;11.15;5.85;;;;;;;18.73;80.51;99587.18;1816672;78;21578;-74
2022/08/17 02:17:17;;;;;;;7.83;5.70;;;;;;;18.72;80.53;99597.06;1766105;78;21085;-76
2022/08/17 02:19:44;;;;;;;11.40;5.75;;;;;;;18.70;80.52;99595.06;1781541;78;21060;-75
2022/08/17 02:22:11;;;;;;;11.10;6.30;;;;;;;18.69;80.46;99588.06;1788716;79;21891;-74
2022/08/17 02:24:37;;;;;;;10.88;5.80;;;;;;;18.68;80.44;99593.09;1788626;78;21037;-73
2022/08/17 02:27:05;;;;;;;9.38;6.37;;;;;;;18.68;80.40;99601.12;1789498;78;21006;-74
2022/08/17 02:29:32;;;;;;;9.60;6.15;;;;;;;18.67;80.29;99587.94;1798944;78;20980;-74
2022/08/17 02:31:59;;;;;;;11.10;6.53;;;;;;;18.64;80.42;99593.14;1810305;78;21046;-74
2022/08/17 02:34:27;;;;;;;8.18;6.03;;;;;;;18.66;80.54;99595.66;1813913;78;22040;-74
2022/08/17 02:36:54;;;;;;;12.03;6.10;;;;;;;18.66;80.62;99591.64;1819937;78;21066;-75
2022/08/17 02:39:21;;;;;;;12.30;5.85;;;;;;;18.65;80.56;99589.48;1774794;78;21070;-77
2022/08/17 02:41:47;;;;;;;11.10;6.40;;;;;;;18.63;80.56;99591.49;1816243;78;21051;-74
2022/08/17 02:44:15;;;;;;;13.00;6.10;;;;;;;18.62;80.51;99593.00;1821243;78;21035;-75
2022/08/17 02:46:42;;;;;;;11.33;6.22;;;;;;;18.60;80.34;99588.67;1814063;78;21815;-74
2022/08/17 02:49:09;;;;;;;16.40;6.62;;;;;;;18.61;80.41;99589.50;1806645;78;21152;-75
2022/08/17 02:51:38;;;;;;;10.78;6.22;;;;;;;18.59;80.50;99581.67;1815403;77;21121;-76
2022/08/17 02:54:05;;;;;;;9.03;5.72;;;;;;;18.57;80.57;99578.88;1788443;78;21060;-76
2022/08/17 02:56:32;;;;;;;9.90;5.95;;;;;;;18.54;80.66;99576.60;1783216;78;21062;-75
2022/08/17 02:58:59;;;;;;;10.98;5.72;;;;;;;18.53;80.68;99577.11;1781116;78;21941;-75
2022/08/17 03:01:26;;;;;;;13.98;6.37;;;;;;;18.54;80.57;99577.94;1779747;79;21016;-75
2022/08/17 03:03:53;;;;;;;10.15;5.85;;;;;;;18.52;80.42;99578.61;1776198;78;21074;-75
2022/08/17 03:06:20;;;;;;;11.68;6.10;;;;;;;18.50;80.39;99575.31;1777143;78;21546;-75
2022/08/17 03:08:47;;;;;;;12.85;6.45;;;;;;;18.51;80.48;99575.11;1817728;77;21024;-77
2022/08/17 03:11:14;;;;;;;11.25;6.65;;;;;;;18.51;80.63;99571.10;1816834;77;21642;-74
2022/08/17 03:13:40;;;;;;;13.83;5.97;;;;;;;18.51;80.72;99568.94;1785124;78;21094;-75
2022/08/17 03:16:07;;;;;;;7.70;6.17;;;;;;;18.53;80.79;99568.27;1804954;77;21000;-74
2022/08/17 03:18:34;;;;;;;9.35;6.25;;;;;;;18.54;80.67;99573.41;1817753;78;21023;-76
2022/08/17 03:21:03;;;;;;;9.85;6.30;;;;;;;18.54;80.72;99572.08;1791739;78;21035;-75
2022/08/17 03:23:31;;;;;;;9.73;5.45;;;;;;;18.53;80.63;99570.42;1818276;77;22539;-77
2022/08/17 03:25:57;;;;;;;10.15;5.80;;;;;;;18.53;80.62;99573.61;1819930;77;21495;-75
2022/08/17 03:28:24;;;;;;;8.03;6.00;;;;;;;18.54;80.71;99572.59;1816703;77;21031;-74
2022/08/17 03:30:50;;;;;;;11.38;5.78;;;;;;;18.55;80.85;99571.56;1817221;77;21069;-75
2022/08/17 03:33:17;;;;;;;12.23;5.70;;;;;;;18.55;81.00;99568.89;1821607;77;21019;-75
2022/08/17 03:35:43;;;;;;;8.50;6.20;;;;;;;18.54;81.05;99572.08;1816997;77;22596;-74
2022/08/17 03:38:10;;;;;;;14.00;6.70;;;;;;;18.54;81.17;99574.75;1808011;77;21479;-75
2022/08/17 03:40:37;;;;;;;9.28;5.95;;;;;;;18.55;81.36;99579.59;1785335;78;21027;-75
2022/08/17 03:43:09;;;;;;;10.40;6.20;;;;;;;18.57;81.51;99574.87;1784975;78;21617;-75
2022/08/17 03:56:42;;;;;;;11.57;6.00;;;;;;;18.77;81.73;99575.88;1820368;78;21490;-74
2022/08/17 03:59:19;;;;;;;9.70;6.12;;;;;;;18.82;81.77;99577.48;1814211;78;21076;-74
2022/08/17 04:01:49;;;;;;;11.60;6.78;;;;;;;18.87;81.80;99563.50;1804629;78;21865;-75
2022/08/17 04:04:16;;;;;;;10.70;5.75;;;;;;;18.91;81.83;99566.61;1821246;78;21063;-74
2022/08/17 04:06:42;;;;;;;10.10;6.00;;;;;;;18.95;81.89;99568.71;1791296;77;21427;-78
2022/08/17 04:09:09;;;;;;;12.33;6.55;;;;;;;19.00;81.96;99559.56;1814389;78;21448;-76
2022/08/17 04:11:37;;;;;;;9.58;6.33;;;;;;;19.05;82.12;99564.34;1805302;78;20935;-74
2022/08/17 04:14:03;;;;;;;9.48;5.92;;;;;;;19.10;82.34;99561.38;1796656;78;22539;-74
2022/08/17 04:16:33;;;;;;;9.50;6.83;;;;;;;19.14;82.52;99558.64;1795382;78;21085;-76
2022/08/17 04:19:01;;;;;;;12.03;6.83;;;;;;;19.22;82.59;99563.53;1788822;78;21031;-76
2022/08/17 04:21:27;;;;;;;12.82;6.70;;;;;;;19.28;82.78;99560.88;1801983;78;20990;-76
2022/08/17 04:23:53;;;;;;;13.85;6.72;;;;;;;19.36;83.02;99567.41;1798840;78;21039;-77
2022/08/17 04:26:21;;;;;;;14.45;7.20;;;;;;;19.45;83.37;99572.91;1798324;78;22510;-75
2022/08/17 04:28:47;;;;;;;12.93;7.20;;;;;;;19.55;83.59;99566.36;1798943;78;21073;-77
2022/08/17 04:31:15;;;;;;;11.10;7.10;;;;;;;19.64;83.71;99567.88;1802736;78;21065;-75
2022/08/17 04:33:45;;;;;;;10.13;6.78;;;;;;;19.73;83.80;99573.38;1820583;77;21010;-74
2022/08/17 04:36:13;;;;;;;15.18;6.92;;;;;;;19.80;83.79;99570.22;1820135;77;21008;-74
2022/08/17 04:38:42;;;;;;;10.43;6.65;;;;;;;19.89;83.83;99575.71;1822561;77;21826;-76
2022/08/17 04:43:57;;;;;;;10.32;6.75;;;;;;;20.08;83.84;99575.97;1832106;77;21063;-76
2022/08/17 04:46:27;;;;;;;10.63;6.80;;;;;;;20.18;83.77;99571.05;1786271;79;20956;-73
2022/08/17 04:48:55;;;;;;;13.45;6.90;;;;;;;20.26;83.73;99568.97;1782863;78;21104;-72
2022/08/17 04:51:27;;;;;;;11.80;6.60;;;;;;;20.35;83.64;99580.33;1795776;78;21924;-75
2022/08/17 04:53:57;;;;;;;9.35;6.50;;;;;;;20.44;83.60;99577.80;1813655;78;21043;-76
2022/08/17 04:56:24;;;;;;;8.33;6.55;;;;;;;20.54;83.54;99584.92;1815461;78;21042;-74
2022/08/17 04:58:53;;;;;;;11.33;7.00;;;;;;;20.64;83.43;99589.87;1817379;78;20980;-72
2022/08/17 05:01:21;;;;;;;11.10;6.33;;;;;;;20.72;83.33;99588.85;1811946;78;21553;-78
2022/08/17 05:03:48;;;;;;;10.68;7.00;;;;;;;20.81;83.16;99588.44;1805856;78;21768;-73
2022/08/17 05:06:18;;;;;;;14.73;6.97;;;;;;;20.91;82.97;99588.02;1813670;77;20924;-73
2022/08/17 05:08:44;;;;;;;10.58;7.08;;;;;;;20.98;82.75;99592.88;1813792;78;21552;-74
2022/08/17 05:11:11;;;;;;;12.85;7.08;;;;;;;21.07;82.60;99590.28;1811231;78;21367;-76
2022/08/17 05:13:40;;;;;;;10.08;6.83;;;;;;;21.18;82.52;99596.05;1821209;78;20915;-78
2022/08/17 05:16:07;;;;;;;11.65;7.33;;;;;;;21.28;82.32;99603.19;1791707;78;21777;-72
2022/08/17 05:18:36;;;;;;;10.15;7.17;;;;;;;21.36;82.17;99601.62;1777182;78;20920;-72
2022/08/17 05:21:02;;;;;;;9.68;6.28;;;;;;;21.44;81.73;99604.08;1791186;78;20961;-76
2022/08/17 05:23:29;;;;;;;11.95;7.55;;;;;;;21.51;81.35;99602.18;1799824;79;21023;-69
2022/08/17 05:25:55;;;;;;;13.98;6.78;;;;;;;21.60;81.18;99603.59;1825030;77;20933;-71
2022/08/17 05:28:26;;;;;;;16.15;7.50;;;;;;;21.70;81.02;99605.31;1794691;78;21847;-73
2022/08/17 05:30:54;;;;;;;9.00;6.80;;;;;;;21.79;80.66;99607.25;1815290;77;21056;-75
2022/08/17 05:33:26;;;;;;;14.78;6.97;;;;;;;21.88;80.31;99595.73;1814676;77;20979;-73
2022/08/17 05:35:54;;;;;;;10.65;6.80;;;;;;;21.94;79.75;99600.27;1821794;77;21009;-71
2022/08/17 05:38:23;;;;;;;11.97;6.90;;;;;;;22.01;79.51;99605.11;1808880;77;21058;-72
2022/08/17 05:40:49;;;;;;;12.30;6.70;;;;;;;22.09;79.23;99607.55;1814773;77;21814;-72
2022/08/17 05:43:20;;;;;;;10.32;7.08;;;;;;;22.15;78.79;99609.39;1821188;77;21014;-72
2022/08/17 05:46:23;;;;;;;11.63;7.78;;;;;;;22.19;78.56;99601.18;1818892;78;21066;-71
2022/08/17 05:49:03;;;;;;;15.45;7.83;;;;;;;22.29;78.48;99599.36;1781991;80;21148;-70
2022/08/17 05:52:00;;;;;;;12.60;7.62;;;;;;;22.38;78.04;99595.38;1763742;81;20984;-71
2022/08/17 05:55:06;;;;;;;18.05;8.05;;;;;;;22.48;77.92;99605.66;1790316;78;21888;-77
2022/08/17 05:58:14;;;;;;;18.45;7.87;;;;;;;22.55;77.55;99599.19;1771615;78;20946;-71
2022/08/17 06:00:59;;;;;;;13.88;7.60;;;;;;;22.66;77.49;99601.69;1783440;78;21008;-72
2022/08/17 06:03:50;;;;;;;12.53;7.37;;;;;;;22.77;77.02;99600.16;1799894;78;20948;-71
2022/08/17 06:06:40;;;;;;;16.05;7.17;;;;;;;22.85;76.55;99599.91;1811295;78;21015;-71
2022/08/17 06:09:29;;;;;;;12.75;7.85;;;;;;;22.91;75.91;99602.27;1802643;78;22452;-71
2022/08/17 06:12:16;;;;;;;16.20;8.45;;;;;;;22.99;75.94;99600.11;1808422;77;20992;-72
2022/08/17 06:14:58;;;;;;;12.18;8.50;;;;;;;23.10;75.76;99599.91;1807778;78;21044;-72
2022/08/17 06:17:25;;;;;;;11.68;8.35;;;;;;;23.19;75.58;99603.97;1810541;78;20953;-70
2022/08/17 06:19:57;;;;;;;18.82;8.70;;;;;;;23.29;75.09;99597.53;1807258;78;20988;-71
2022/08/17 06:22:28;;;;;;;16.30;7.50;;;;;;;23.39;74.79;99597.02;1820966;77;21862;-72
2022/08/17 06:25:04;;;;;;;12.78;7.08;;;;;;;23.46;74.23;99596.95;1787322;78;20897;-71
2022/08/17 06:27:57;;;;;;;12.13;6.87;;;;;;;23.48;74.06;99601.06;1818624;78;21023;-74
2022/08/17 06:30:29;;;;;;;12.10;7.12;;;;;;;23.56;74.17;99597.25;1812414;78;20940;-70
2022/08/17 06:33:01;;;;;;;13.45;7.37;;;;;;;23.67;74.13;99597.87;1810030;78;20932;-71
2022/08/17 06:35:43;;;;;;;15.45;7.85;;;;;;;23.81;74.24;99602.56;1783314;78;22558;-71
2022/08/17 06:38:25;;;;;;;12.35;7.83;;;;;;;23.91;73.91;99600.98;1809822;78;20970;-72
2022/08/17 06:41:11;;;;;;;12.63;8.10;;;;;;;23.98;73.34;99604.41;1825036;77;21001;-73
2022/08/17 06:44:00;;;;;;;10.90;7.37;;;;;;;24.07;72.72;99604.11;1819684;78;20943;-72
2022/08/17 06:46:42;;;;;;;13.38;7.35;;;;;;;24.14;72.58;99604.84;1752271;78;20964;-72
2022/08/17 06:49:32;;;;;;;13.45;7.22;;;;;;;24.21;72.38;99602.86;1812700;78;21795;-72
2022/08/17 06:52:15;;;;;;;12.18;7.17;;;;;;;24.27;71.96;99604.13;1814169;78;20878;-83
2022/08/17 06:54:53;;;;;;;12.75;7.10;;;;;;;24.30;71.87;99600.66;1820428;78;20991;-73
2022/08/17 06:57:29;;;;;;;17.10;7.53;;;;;;;24.37;71.81;99598.20;1792894;78;20988;-76
2022/08/17 07:00:16;;;;;;;17.27;7.92;;;;;;;24.48;71.48;99593.88;1807881;78;21288;-74
2022/08/17 07:02:51;;;;;;;13.13;7.58;;;;;;;24.55;70.62;99596.77;1789630;79;21828;-74
2022/08/17 07:05:20;;;;;;;16.05;7.10;;;;;;;24.67;70.61;99595.44;1820156;78;21023;-77
2022/08/17 07:08:01;;;;;;;11.97;7.22;;;;;;;24.78;70.53;99595.16;1822764;77;20996;-84
2022/08/17 07:10:41;;;;;;;13.08;7.45;;;;;;;24.86;70.35;99601.57;1821879;78;20991;-80
2022/08/17 07:13:29;;;;;;;13.65;7.65;;;;;;;24.94;70.18;99594.48;1818471;78;21060;-79
2022/08/17 07:16:08;;;;;;;12.53;7.25;;;;;;;25.01;69.83;99597.07;1798092;78;21837;-80
2022/08/17 07:18:35;;;;;;;15.63;7.20;;;;;;;24.94;69.09;99595.83;1823696;78;20946;-78
2022/08/17 07:21:12;;;;;;;15.20;7.87;;;;;;;24.88;69.59;99596.75;1823156;77;20960;-80
2022/08/17 07:24:00;;;;;;;12.13;8.00;;;;;;;24.90;69.37;99596.02;1813770;78;21004;-80
2022/08/17 07:26:27;;;;;;;14.78;7.83;;;;;;;24.95;69.12;99595.30;1820600;77;20921;-78
2022/08/17 07:28:57;;;;;;;15.70;8.58;;;;;;;24.98;68.66;99593.47;1821146;78;22438;-79
2022/08/17 07:31:24;;;;;;;16.07;8.25;;;;;;;24.98;68.36;99598.88;1828112;77;21535;-77
2022/08/17 07:34:06;;;;;;;11.43;7.75;;;;;;;25.04;69.10;99597.45;1817318;78;21454;-79
2022/08/17 07:36:33;;;;;;;13.95;8.20;;;;;;;25.13;69.16;99610.08;1819852;77;21399;-76
2022/08/17 07:39:01;;;;;;;14.70;7.50;;;;;;;25.22;68.98;99603.26;1824063;78;20976;-76
2022/08/17 07:41:31;;;;;;;14.10;8.15;;;;;;;25.32;68.79;99601.31;1818491;77;22531;-75
2022/08/17 07:43:57;;;;;;;17.10;8.58;;;;;;;25.43;68.61;99601.82;1803790;78;21011;-76
2022/08/17 07:49:21;;;;;;;21.93;9.20;;;;;;;25.67;67.59;99609.34;1809963;78;20972;-77
2022/08/17 07:51:53;;;;;;;17.10;8.25;;;;;;;25.81;66.64;99607.24;1817043;77;21120;-75
2022/08/17 07:54:34;;;;;;;17.73;8.05;;;;;;;25.88;65.97;99608.75;1813995;77;22384;-75
2022/08/17 07:57:09;;;;;;;13.45;8.88;;;;;;;25.92;65.16;99605.84;1808233;78;21029;-75
2022/08/17 07:59:41;;;;;;;15.93;8.65;;;;;;;25.95;64.82;99607.23;1817465;78;20981;-74
2022/08/17 08:02:19;;;;;;;17.87;8.63;;;;;;;26.02;64.96;99607.92;1809495;78;21008;-74
2022/08/17 08:04:49;;;;;;;18.27;8.75;;;;;;;26.08;64.21;99602.09;1751515;80;20979;-75
2022/08/17 08:07:22;;;;;;;12.33;8.35;;;;;;;26.07;63.88;99598.56;1798051;78;21813;-75
2022/08/17 08:10:09;;;;;;;19.90;9.48;;;;;;;26.08;63.87;99602.91;1818907;78;21049;-75
2022/08/17 08:12:40;;;;;;;14.50;8.68;;;;;;;26.15;63.94;99600.04;1790312;78;20949;-75
2022/08/17 08:15:18;;;;;;;17.45;8.43;;;;;;;26.24;64.34;99599.94;1819867;77;21366;-74
2022/08/17 08:17:57;;;;;;;20.20;9.15;;;;;;;26.36;64.53;99603.97;1775140;78;21076;-76
2022/08/17 08:20:44;;;;;;;16.45;8.50;;;;;;;26.44;63.45;99603.06;1800633;78;21787;-74
2022/08/17 08:23:49;;;;;;;17.10;8.83;;;;;;;26.53;63.51;99604.81;1782392;79;21055;-76
2022/08/17 08:26:39;;;;;;;16.12;9.05;;;;;;;26.62;63.43;99596.58;1790352;78;21009;-76
2022/08/17 08:29:32;;;;;;;20.25;8.83;;;;;;;26.73;62.93;99601.12;1801037;78;21060;-74
2022/08/17 08:32:20;;;;;;;16.67;8.75;;;;;;;26.79;62.64;99597.41;1791062;78;21037;-75
2022/08/17 08:35:09;;;;;;;16.23;8.75;;;;;;;26.87;62.00;99595.36;1745492;78;21934;-76
2022/08/17 08:38:18;;;;;;;15.85;9.08;;;;;;;26.90;62.36;99591.61;1782813;78;21378;-74
2022/08/17 08:40:54;;;;;;;21.27;8.55;;;;;;;27.03;62.55;99595.92;1798616;78;21000;-75
2022/08/17 08:43:35;;;;;;;18.23;8.45;;;;;;;27.16;62.17;99595.56;1785098;78;21389;-73
2022/08/17 08:46:29;;;;;;;14.13;7.87;;;;;;;27.27;61.04;99595.98;1798358;78;21023;-75
2022/08/17 08:49:03;;;;;;;16.97;8.25;;;;;;;27.37;60.41;99598.84;1819850;77;21868;-74
2022/08/17 08:51:59;;;;;;;14.50;8.13;;;;;;;27.45;59.72;99604.91;1799240;78;21071;-74
2022/08/17 08:54:44;;;;;;;16.55;7.87;;;;;;;27.48;58.92;99603.86;1806372;78;21037;-74
2022/08/17 08:57:20;;;;;;;14.35;7.87;;;;;;;27.61;58.50;99596.73;1821327;77;21514;-73
2022/08/17 08:59:56;;;;;;;14.28;7.42;;;;;;;27.70;58.06;99590.86;1790925;78;21508;-75
2022/08/17 09:02:52;;;;;;;16.32;7.95;;;;;;;27.73;57.86;99589.02;1805430;78;21781;-74
2022/08/17 09:05:48;;;;;;;13.75;7.67;;;;;;;27.78;57.21;99587.17;1820112;77;21495;-74
2022/08/17 09:08:50;;;;;;;14.15;7.62;;;;;;;27.70;57.32;99590.36;1822420;77;20990;-75
2022/08/17 09:11:47;;;;;;;16.20;8.23;;;;;;;27.73;57.89;99588.48;1815910;78;20968;-76
2022/08/17 09:14:52;;;;;;;14.60;7.17;;;;;;;27.86;57.55;99585.91;1811422;78;21553;-76
2022/08/17 09:17:39;;;;;;;22.77;7.97;;;;;;;27.92;56.03;99588.97;1819722;77;22005;-75
2022/08/17 09:20:25;;;;;;;21.12;8.18;;;;;;;28.04;55.92;99582.86;1819675;77;20992;-74
2022/08/17 09:23:05;;;;;;;15.98;7.53;;;;;;;28.07;55.07;99588.30;1782568;78;21012;-74
2022/08/17 09:25:36;;;;;;;11.78;6.80;;;;;;;28.03;55.16;99586.65;1786403;78;21067;-75
2022/08/17 09:28:19;;;;;;;15.48;7.47;;;;;;;28.09;54.83;99593.78;1799040;78;21489;-75
2022/08/17 09:30:51;;;;;;;14.83;6.85;;;;;;;28.13;54.48;99585.94;1809627;78;21806;-75
2022/08/17 09:33:24;;;;;;;13.43;6.70;;;;;;;28.22;54.47;99584.40;1820791;77;20987;-75
2022/08/17 09:35:57;;;;;;;14.68;6.95;;;;;;;28.34;54.17;99587.80;1782506;79;21418;-74
2022/08/17 09:39:03;;;;;;;15.78;7.05;;;;;;;28.46;53.60;99584.38;1769813;79;21102;-75
2022/08/17 09:42:15;;;;;;;16.55;6.62;;;;;;;28.55;53.14;99579.83;1812540;78;21532;-74
2022/08/17 09:44:53;;;;;;;11.10;6.12;;;;;;;28.67;52.51;99579.14;1778045;79;21645;-75
2022/08/17 09:47:44;;;;;;;10.82;6.35;;;;;;;28.69;52.43;99579.15;1745572;81;21081;-75
2022/08/17 09:50:20;;;;;;;12.95;6.83;;;;;;;28.75;51.95;99582.70;1761395;79;21088;-77
2022/08/17 09:52:47;;;;;;;10.00;5.78;;;;;;;28.91;52.07;99583.68;1769024;79;21097;-76
2022/08/17 09:55:13;;;;;;;12.55;6.00;;;;;;;29.08;52.28;99578.37;1769123;79;21117;-75
2022/08/17 09:58:13;;;;;;;13.88;6.30;;;;;;;29.22;50.90;99571.91;1769762;79;22344;-75
2022/08/17 10:00:44;;;;;;;10.68;5.92;;;;;;;29.36;51.53;99580.43;1757169;79;21552;-75
2022/08/17 10:03:28;;;;;;;7.95;5.50;;;;;;;29.63;50.29;99574.33;1735257;81;21020;-75
2022/08/17 10:06:05;;;;;;;8.90;6.17;;;;;;;29.63;50.29;99574.33;1769438;79;21565;-75
2022/08/17 10:08:52;;;;;;;10.25;5.25;;;;;;;29.82;50.17;99565.66;1769725;79;21494;-76
2022/08/17 10:14:38;;;;;;;10.63;6.22;;;;;;;30.14;48.15;99558.16;1769426;79;21675;-74
2022/08/17 10:17:10;;;;;;;8.13;5.45;;;;;;;30.18;47.20;99553.79;1770403;79;21086;-73
2022/08/17 10:19:39;;;;;;;9.90;5.50;;;;;;;30.23;47.88;99550.82;1770277;79;21100;-77
2022/08/17 10:28:07;;;;;;;9.30;5.37;;;;;;;30.69;47.35;99564.77;1769995;79;21082;-75
2022/08/17 10:30:37;;;;;;;11.00;5.55;;;;;;;30.78;46.38;99563.64;1770869;81;21075;-74
2022/08/17 10:33:06;;;;;;;8.50;5.35;;;;;;;30.84;46.15;99560.38;1743393;81;21436;-74
2022/08/17 10:36:08;;;;;;;9.00;5.35;;;;;;;30.88;46.09;99566.34;1770615;79;21024;-77
2022/08/17 10:38:44;;;;;;;10.00;5.87;;;;;;;30.99;46.49;99563.90;1770545;80;22520;-75
2022/08/17 10:41:19;;;;;;;6.50;4.92;;;;;;;31.21;45.42;99559.50;1770621;79;20999;-74
2022/08/17 10:44:09;;;;;;;9.05;5.67;;;;;;;31.38;45.29;99558.37;1767058;79;21082;-75
2022/08/17 10:47:06;;;;;;;9.55;5.80;;;;;;;31.48;44.09;99552.88;1799796;77;21579;-75
2022/08/17 10:49:52;;;;;;;8.90;5.62;;;;;;;31.52;43.60;99556.11;1821440;77;21024;-74
2022/08/17 10:52:25;;;;;;;9.60;6.30;;;;;;;31.50;44.04;99552.85;1820492;77;21926;-75
2022/08/17 10:54:57;;;;;;;11.97;5.95;;;;;;;31.48;44.07;99552.88;1810344;78;21002;-75
2022/08/17 10:57:34;;;;;;;8.48;6.12;;;;;;;31.31;43.72;99553.20;1819110;78;21012;-79
2022/08/17 11:00:13;;;;;;;11.68;6.47;;;;;;;31.16;44.26;99554.56;1805022;77;21007;-75
2022/08/17 11:02:48;;;;;;;9.70;6.15;;;;;;;31.10;44.72;99561.96;1802665;78;21450;-75
2022/08/17 11:05:39;;;;;;;10.50;6.50;;;;;;;31.02;45.14;99561.97;1821299;78;21902;-75
2022/08/17 11:08:47;;;;;;;7.80;5.85;;;;;;;30.93;44.95;99560.08;1810557;78;21081;-76
2022/08/17 11:11:54;;;;;;;11.65;6.12;;;;;;;30.94;46.25;99552.17;1819901;78;21718;-74
2022/08/17 11:14:48;;;;;;;8.73;6.50;;;;;;;31.24;46.56;99557.58;1812559;78;21035;-75
2022/08/17 11:17:21;;;;;;;;;;;;;;;31.61;45.19;99541.34;1753524;78;21084;-75
2022/08/17 11:20:08;;;;;;;9.33;6.37;;;;;;;31.93;44.74;99530.53;1816254;78;21899;-75
2022/08/17 11:22:49;;;;;;;12.47;6.75;;;;;;;32.19;44.90;99530.63;1818056;78;21461;-75
2022/08/17 11:25:23;;;;;;;11.57;6.72;;;;;;;32.52;43.43;99529.02;1809250;78;21106;-75
2022/08/17 11:27:52;;;;;;;8.90;6.33;;;;;;;32.69;41.84;99523.94;1774875;78;21040;-75
2022/08/17 11:30:46;;;;;;;10.58;6.65;;;;;;;32.62;42.58;99523.48;1808811;78;20950;-76
2022/08/17 11:33:34;;;;;;;8.43;6.33;;;;;;;32.61;42.41;99521.83;1820575;78;22537;-75
2022/08/17 11:36:12;;;;;;;9.68;6.75;;;;;;;32.56;43.00;99521.08;1820735;78;21510;-74
2022/08/17 11:39:03;;;;;;;13.75;6.53;;;;;;;32.52;43.68;99515.90;1821025;78;21513;-75
2022/08/17 11:41:58;;;;;;;8.37;6.20;;;;;;;32.61;43.95;99504.61;1810151;78;21023;-77
2022/08/17 11:44:39;;;;;;;8.25;6.15;;;;;;;32.77;41.77;99495.16;1799669;78;21431;-75
2022/08/17 11:53:42;;;;;;;8.35;6.53;;;;;;;33.13;40.28;99512.03;1815697;78;21110;-75
2022/08/17 11:56:43;;;;;;;8.18;6.35;;;;;;;32.77;40.56;99518.41;1808052;78;21029;-74
2022/08/17 11:59:38;;;;;;;9.30;6.62;;;;;;;32.48;41.80;99515.67;1815885;78;21070;-75
2022/08/17 12:02:31;;;;;;;9.63;6.45;;;;;;;32.64;41.88;99520.45;1762086;78;21933;-74
2022/08/17 12:05:19;;;;;;;9.33;6.65;;;;;;;32.67;40.88;99517.14;1811378;78;27755;-76
2022/08/17 12:08:05;;;;;;;11.33;7.12;;;;;;;32.53;40.92;99522.47;1816222;78;21449;-76
2022/08/17 12:10:36;;;;;;;9.58;6.67;;;;;;;32.43;41.28;99520.64;1819182;77;21633;-75
2022/08/17 12:13:12;;;;;;;13.48;6.65;;;;;;;32.38;41.48;99519.30;1804930;78;21630;-75
2022/08/17 12:15:48;;;;;;;12.05;6.58;;;;;;;32.44;41.40;99519.54;1787781;78;21929;-75
2022/08/17 12:18:27;;;;;;;8.90;6.42;;;;;;;32.65;41.65;99520.72;1820938;78;21517;-75
2022/08/17 12:21:29;;;;;;;9.25;6.40;;;;;;;32.96;42.09;99511.67;1763563;78;21053;-76
2022/08/17 12:24:07;;;;;;;10.80;7.22;;;;;;;33.21;41.12;99502.37;1820862;78;21014;-76
2022/08/17 12:26:35;;;;;;;11.93;7.05;;;;;;;33.24;40.92;99499.04;1806108;78;21917;-76
2022/08/17 12:29:11;;;;;;;13.78;6.85;;;;;;;33.10;41.29;99487.97;1812286;78;21981;-79
2022/08/17 12:31:48;;;;;;;13.08;7.08;;;;;;;33.07;41.70;99483.64;1820310;78;21450;-74
2022/08/17 12:34:40;;;;;;;10.82;6.70;;;;;;;33.03;41.37;99486.97;1823309;78;20936;-75
2022/08/17 12:37:17;;;;;;;10.63;6.58;;;;;;;32.94;41.49;99480.51;1812480;78;21301;-76
2022/08/17 12:40:04;;;;;;;9.60;6.05;;;;;;;32.90;41.56;99483.55;1823085;77;21051;-76
2022/08/17 12:42:36;;;;;;;11.97;6.58;;;;;;;32.81;41.47;99480.34;1789074;78;22387;-75
2022/08/17 12:45:07;;;;;;;11.95;6.60;;;;;;;32.54;42.50;99481.73;1822471;78;21121;-75
2022/08/17 12:47:35;;;;;;;13.48;6.58;;;;;;;32.38;42.81;99478.31;1770788;79;21065;-76
2022/08/17 12:50:12;;;;;;;12.53;6.55;;;;;;;32.25;42.94;99473.48;1771728;79;21034;-74